createdAt,value
2023-08-17T00:01:56.810Z,1.70
2023-08-17T00:07:07.824Z,1.83
2023-08-17T00:12:18.926Z,1.80
2023-08-17T00:14:45.625Z,1.80
2023-08-17T00:17:12.372Z,1.73
2023-08-17T00:19:39.069Z,1.40
2023-08-17T00:24:50.150Z,1.53
2023-08-17T00:27:16.900Z,1.67
2023-08-17T00:29:43.778Z,1.77
2023-08-17T00:32:10.545Z,1.70
2023-08-17T00:37:21.539Z,1.93
2023-08-17T00:39:48.414Z,1.90
2023-08-17T00:42:15.174Z,1.97
2023-08-17T00:44:42.381Z,1.70
2023-08-17T00:49:53.323Z,1.60
2023-08-17T00:55:05.131Z,1.87
2023-08-17T00:57:32.515Z,2.00
2023-08-17T01:00:05.311Z,1.97
2023-08-17T01:02:33.099Z,1.77
2023-08-17T01:05:00.380Z,1.80
2023-08-17T01:07:31.060Z,1.70
2023-08-17T01:44:45.612Z,2.23
2023-08-17T01:47:16.064Z,2.33
2023-08-17T01:49:43.657Z,2.20
2023-08-17T01:54:55.336Z,2.30
2023-08-17T01:57:22.062Z,2.40
2023-08-17T01:59:48.775Z,2.30
2023-08-17T02:02:16.059Z,2.17
2023-08-17T02:04:42.872Z,2.23
2023-08-17T02:07:10.295Z,2.27
2023-08-17T02:09:37.054Z,1.90
2023-08-17T02:14:50.463Z,2.10
2023-08-17T02:17:17.861Z,2.70
2023-08-17T02:19:44.869Z,2.50
2023-08-17T02:22:11.836Z,2.60
2023-08-17T02:27:23.147Z,1.97
2023-08-17T02:29:50.024Z,2.17
2023-08-17T02:32:16.715Z,2.73
2023-08-17T02:34:43.453Z,2.07
2023-08-17T02:39:54.783Z,2.10
2023-08-17T02:45:07.322Z,2.27
2023-08-17T02:47:36.334Z,2.20
2023-08-17T02:50:03.136Z,2.20
2023-08-17T02:52:30.080Z,2.10
2023-08-17T02:54:57.054Z,2.17
2023-08-17T02:57:24.552Z,2.30
2023-08-17T02:59:51.485Z,2.10
2023-08-17T03:02:18.207Z,2.30
2023-08-17T03:04:45.277Z,2.20
2023-08-17T03:07:11.932Z,2.33
2023-08-17T03:09:38.881Z,1.97
2023-08-17T03:12:05.781Z,2.10
2023-08-17T03:14:32.486Z,2.37
2023-08-17T03:17:00.153Z,2.13
2023-08-17T03:19:27.046Z,2.80
2023-08-17T03:21:54.811Z,2.73
2023-08-17T03:27:08.701Z,2.40
2023-08-17T03:29:37.863Z,2.80
2023-08-17T03:32:05.374Z,2.50
2023-08-17T03:34:33.306Z,2.67
2023-08-17T03:37:06.406Z,2.20
2023-08-17T03:39:34.366Z,2.23
2023-08-17T03:42:02.052Z,2.43
2023-08-17T03:44:30.399Z,2.13
2023-08-17T03:46:58.749Z,2.37
2023-08-17T03:49:26.029Z,2.50
2023-08-17T03:51:53.597Z,2.40
2023-08-17T03:54:23.164Z,2.40
2023-08-17T03:56:50.588Z,2.20
2023-08-17T04:02:02.623Z,2.43
2023-08-17T04:04:31.097Z,2.40
2023-08-17T04:06:59.783Z,2.53
2023-08-17T04:09:26.825Z,3.00
2023-08-17T04:11:53.658Z,3.13
2023-08-17T04:14:22.172Z,2.70
2023-08-17T04:16:51.392Z,2.60
2023-08-17T04:19:18.884Z,2.10
2023-08-17T04:21:45.599Z,2.27
2023-08-17T04:24:13.334Z,2.20
2023-08-17T04:29:27.447Z,2.00
2023-08-17T04:31:57.025Z,3.00
2023-08-17T04:34:24.480Z,2.40
2023-08-17T04:36:52.626Z,2.37
2023-08-17T04:42:07.742Z,2.10
2023-08-17T04:44:37.953Z,2.23
2023-08-17T04:47:05.274Z,2.73
2023-08-17T04:49:34.741Z,2.60
2023-08-17T04:54:47.574Z,2.77
2023-08-17T04:57:14.620Z,2.17
2023-08-17T04:59:41.644Z,2.40
2023-08-17T05:02:10.129Z,2.70
2023-08-17T05:04:40.491Z,2.73
2023-08-17T05:07:07.972Z,3.03
2023-08-17T05:09:35.617Z,2.90
2023-08-17T05:12:05.561Z,2.63
2023-08-17T05:14:33.094Z,3.40
2023-08-17T05:17:02.377Z,2.83
2023-08-17T05:19:29.776Z,2.87
2023-08-17T05:21:58.222Z,3.53
2023-08-17T05:24:28.022Z,3.13
2023-08-17T05:26:56.129Z,2.40
2023-08-17T05:29:25.210Z,3.03
2023-08-17T05:31:55.562Z,8.57
2023-08-17T05:34:24.586Z,5.20
2023-08-17T05:36:51.716Z,3.97
2023-08-17T05:39:18.692Z,2.80
2023-08-17T05:44:31.080Z,2.80
2023-08-17T05:47:01.261Z,2.80
2023-08-17T05:49:29.470Z,2.73
2023-08-17T05:51:57.591Z,2.83
2023-08-17T05:54:40.091Z,2.60
2023-08-17T05:57:07.404Z,2.50
2023-08-17T05:59:34.042Z,2.30
2023-08-17T06:02:01.014Z,2.10
2023-08-17T06:04:27.771Z,2.30
2023-08-17T06:06:54.912Z,2.20
2023-08-17T06:09:21.867Z,1.97
2023-08-17T06:11:48.806Z,2.17
2023-08-17T06:14:15.775Z,2.07
2023-08-17T06:16:42.809Z,2.30
2023-08-17T06:19:10.075Z,7.57
2023-08-17T06:21:37.423Z,5.03
2023-08-17T06:24:05.549Z,3.50
2023-08-17T06:26:32.401Z,2.20
2023-08-17T06:28:59.484Z,1.73
2023-08-17T06:31:28.796Z,2.37
2023-08-17T06:33:55.909Z,1.90
2023-08-17T06:36:23.422Z,1.63
2023-08-17T06:38:50.133Z,1.90
2023-08-17T06:41:17.352Z,2.00
2023-08-17T06:43:44.274Z,1.63
2023-08-17T06:46:11.503Z,1.90
2023-08-17T06:48:38.334Z,1.80
2023-08-17T06:51:06.531Z,1.93
2023-08-17T06:53:33.931Z,1.67
2023-08-17T06:56:03.151Z,1.90
2023-08-17T07:01:15.941Z,2.20
2023-08-17T07:03:46.278Z,1.80
2023-08-17T07:06:13.816Z,2.00
2023-08-17T07:08:42.868Z,1.90
2023-08-17T07:11:10.970Z,2.53
2023-08-17T07:13:38.871Z,2.47
2023-08-17T07:16:07.253Z,2.60
2023-08-17T07:18:37.719Z,2.00
2023-08-17T07:21:07.056Z,2.30
2023-08-17T07:23:40.817Z,2.20
2023-08-17T07:26:10.241Z,1.97
2023-08-17T07:28:41.174Z,2.87
2023-08-17T07:31:09.645Z,2.67
2023-08-17T07:33:38.057Z,2.60
2023-08-17T07:36:06.404Z,2.37
2023-08-17T07:38:33.749Z,2.20
2023-08-17T07:41:06.950Z,2.43
2023-08-17T07:43:36.125Z,2.33
2023-08-17T07:46:03.822Z,2.50
2023-08-17T07:48:34.836Z,2.30
2023-08-17T07:51:03.987Z,2.00
2023-08-17T07:53:33.121Z,2.40
2023-08-17T07:56:01.316Z,2.13
2023-08-17T07:58:28.621Z,2.10
2023-08-17T08:00:56.325Z,2.20
2023-08-17T08:03:23.542Z,2.23
2023-08-17T08:05:50.869Z,2.10
2023-08-17T08:08:21.208Z,3.00
2023-08-17T08:13:35.441Z,2.43
2023-08-17T08:18:49.488Z,1.93
2023-08-17T08:21:16.566Z,1.67
2023-08-17T08:23:48.017Z,1.50
2023-08-17T08:26:15.150Z,1.43
2023-08-17T08:28:43.239Z,1.40
2023-08-17T08:31:15.785Z,1.70
2023-08-17T08:36:28.872Z,1.47
2023-08-17T08:41:43.596Z,1.93
2023-08-17T08:44:11.071Z,1.63
2023-08-17T08:46:37.903Z,1.50
2023-08-17T08:49:05.001Z,1.37
2023-08-17T08:51:32.536Z,1.60
2023-08-17T08:54:05.915Z,1.60
2023-08-17T08:56:34.571Z,1.40
2023-08-17T08:59:03.772Z,1.17
2023-08-17T09:01:31.760Z,1.90
2023-08-17T09:04:02.036Z,1.60
2023-08-17T09:06:29.699Z,1.67
2023-08-17T09:08:56.520Z,1.50
2023-08-17T09:11:26.302Z,1.30
2023-08-17T09:13:54.651Z,1.40
2023-08-17T09:16:26.574Z,1.37
2023-08-17T09:18:56.523Z,1.77
2023-08-17T09:21:24.879Z,1.63
2023-08-17T09:29:21.233Z,2.00
2023-08-17T09:34:36.540Z,1.80
2023-08-17T09:39:51.704Z,1.60
2023-08-17T09:45:09.817Z,1.70
2023-08-17T09:47:38.018Z,1.40
2023-08-17T09:50:05.676Z,1.60
2023-08-17T09:52:33.666Z,1.50
2023-08-17T09:57:53.512Z,1.20
2023-08-17T10:00:21.303Z,1.37
2023-08-17T10:02:53.993Z,1.20
2023-08-17T10:05:26.145Z,1.30
2023-08-17T10:07:54.100Z,1.30
2023-08-17T10:13:10.826Z,1.43
2023-08-17T10:15:53.297Z,0.97
2023-08-17T10:18:39.081Z,0.97
2023-08-17T10:21:12.078Z,1.13
2023-08-17T10:23:42.859Z,1.00
2023-08-17T10:26:11.686Z,1.10
2023-08-17T10:28:43.056Z,1.40
2023-08-17T10:31:11.602Z,1.50
2023-08-17T10:33:42.156Z,1.07
2023-08-17T10:36:09.497Z,1.30
2023-08-17T10:38:38.861Z,1.23
2023-08-17T10:41:09.469Z,1.27
2023-08-17T10:43:39.594Z,1.20
2023-08-17T10:49:05.177Z,1.40
2023-08-17T10:51:34.970Z,1.40
2023-08-17T10:54:06.138Z,1.30
2023-08-17T10:56:35.097Z,1.40
2023-08-17T10:59:03.587Z,1.20
2023-08-17T11:01:54.683Z,1.10
2023-08-17T11:04:23.419Z,1.60
2023-08-17T11:09:53.472Z,1.30
2023-08-17T11:12:29.175Z,1.60
2023-08-17T11:15:01.082Z,1.50
2023-08-17T11:17:29.299Z,1.60
2023-08-17T11:19:56.604Z,1.60
2023-08-17T11:22:26.506Z,1.20
2023-08-17T11:24:57.226Z,1.00
2023-08-17T11:27:29.639Z,1.30
2023-08-17T11:29:57.351Z,3.00
2023-08-17T11:32:25.206Z,1.40
2023-08-17T11:37:29.823Z,1.20
2023-08-17T11:39:58.638Z,1.40
2023-08-17T11:42:26.163Z,1.20
2023-08-17T11:47:41.802Z,1.83
2023-08-17T11:53:06.974Z,1.30
2023-08-17T11:58:20.104Z,1.20
2023-08-17T12:00:47.594Z,1.40
2023-08-17T12:03:16.532Z,1.30
2023-08-17T12:05:43.925Z,1.20
2023-08-17T12:10:55.428Z,1.20
2023-08-17T12:13:31.331Z,1.40
2023-08-17T12:15:59.125Z,1.40
2023-08-17T12:18:27.394Z,1.10
2023-08-17T12:20:54.984Z,1.20
2023-08-17T12:23:23.695Z,1.10
2023-08-17T12:28:44.752Z,0.93
2023-08-17T12:33:59.358Z,1.20
2023-08-17T12:36:27.901Z,1.57
2023-08-17T12:38:55.751Z,1.20
2023-08-17T12:41:22.973Z,1.63
2023-08-17T12:43:51.416Z,1.20
2023-08-17T12:46:19.717Z,1.17
2023-08-17T12:48:48.937Z,0.97
2023-08-17T12:51:17.116Z,1.33
2023-08-17T12:53:50.178Z,1.30
2023-08-17T12:56:18.494Z,1.30
2023-08-17T12:58:46.458Z,1.17
2023-08-17T13:01:15.559Z,1.50
2023-08-17T13:03:42.902Z,1.30
2023-08-17T13:06:12.359Z,1.63
2023-08-17T13:08:39.403Z,1.30
2023-08-17T13:11:06.690Z,1.20
2023-08-17T13:13:34.845Z,1.47
2023-08-17T13:16:04.597Z,1.20
2023-08-17T13:21:19.691Z,1.40
2023-08-17T13:23:48.234Z,1.30
2023-08-17T13:26:16.758Z,1.13
2023-08-17T13:28:44.091Z,1.20
2023-08-17T13:31:23.975Z,1.50
2023-08-17T13:33:54.783Z,1.17
2023-08-17T13:36:25.303Z,1.30
2023-08-17T13:38:53.812Z,1.30
2023-08-17T13:41:22.034Z,1.33
2023-08-17T13:43:49.705Z,1.50
2023-08-17T13:46:18.394Z,1.63
2023-08-17T13:48:45.680Z,1.40
2023-08-17T13:51:14.646Z,1.30
2023-08-17T13:53:42.205Z,1.30
2023-08-17T13:56:10.125Z,1.60
2023-08-17T13:58:40.935Z,1.60
2023-08-17T14:01:09.691Z,1.60
2023-08-17T14:03:37.855Z,1.53
2023-08-17T14:08:49.615Z,1.60
2023-08-17T14:14:02.408Z,1.40
2023-08-17T14:16:30.814Z,1.60
2023-08-17T14:19:02.966Z,1.40
2023-08-17T14:21:31.435Z,1.40
2023-08-17T14:24:01.653Z,1.30
2023-08-17T14:26:31.975Z,1.20
2023-08-17T14:29:03.400Z,1.50
2023-08-17T14:31:32.956Z,1.50
2023-08-17T14:34:00.070Z,1.93
2023-08-17T14:36:30.244Z,1.63
2023-08-17T14:39:02.044Z,1.87
2023-08-17T14:41:34.792Z,1.40
2023-08-17T14:44:03.687Z,1.40
2023-08-17T14:46:34.739Z,1.77
2023-08-17T14:49:04.344Z,1.10
2023-08-17T14:51:33.934Z,1.10
2023-08-17T14:54:05.154Z,1.63
2023-08-17T14:56:32.349Z,1.43
2023-08-17T14:59:03.236Z,1.30
2023-08-17T15:01:32.704Z,1.40
2023-08-17T15:04:00.378Z,1.73
2023-08-17T15:06:34.767Z,1.50
2023-08-17T15:09:04.373Z,1.40
2023-08-17T15:11:32.009Z,1.10
2023-08-17T15:13:59.045Z,1.10
2023-08-17T15:16:29.262Z,1.50
2023-08-17T15:18:57.692Z,1.50
2023-08-17T15:21:24.808Z,1.50
2023-08-17T15:23:52.642Z,1.50
2023-08-17T15:26:23.167Z,1.63
2023-08-17T15:28:52.709Z,1.37
2023-08-17T15:31:21.185Z,1.37
2023-08-17T15:33:48.049Z,1.50
2023-08-17T15:36:15.792Z,1.87
2023-08-17T15:38:43.464Z,1.40
2023-08-17T15:41:12.961Z,1.50
2023-08-17T15:43:41.082Z,1.60
2023-08-17T15:46:10.761Z,1.80
2023-08-17T15:48:37.638Z,1.37
2023-08-17T15:51:04.586Z,1.53
2023-08-17T15:53:32.447Z,1.87
2023-08-17T15:56:00.168Z,1.80
2023-08-17T15:58:28.997Z,1.67
2023-08-17T16:00:58.125Z,1.77
2023-08-17T16:03:27.342Z,1.63
2023-08-17T16:05:56.460Z,1.50
2023-08-17T16:08:47.563Z,1.63
2023-08-17T16:11:11.147Z,1.87
2023-08-17T16:13:45.745Z,1.70
2023-08-17T16:16:13.666Z,2.03
2023-08-17T16:18:40.840Z,2.20
2023-08-17T16:21:14.417Z,1.70
2023-08-17T16:23:44.025Z,1.80
2023-08-17T16:26:11.485Z,1.70
2023-08-17T16:28:38.435Z,2.10
2023-08-17T16:33:49.847Z,1.53
2023-08-17T16:36:17.083Z,1.77
2023-08-17T16:38:45.281Z,1.60
2023-08-17T16:41:14.268Z,2.13
2023-08-17T16:43:44.232Z,1.80
2023-08-17T16:46:15.840Z,1.70
2023-08-17T16:48:43.464Z,2.00
2023-08-17T16:51:10.990Z,1.80
2023-08-17T16:53:43.970Z,1.73
2023-08-17T16:59:01.753Z,1.67
2023-08-17T17:01:29.820Z,1.50
2023-08-17T17:03:58.052Z,1.70
2023-08-17T17:06:26.193Z,1.70
2023-08-17T17:08:54.902Z,1.60
2023-08-17T17:11:23.954Z,2.43
2023-08-17T17:13:50.979Z,2.20
2023-08-17T17:19:05.705Z,2.40
2023-08-17T17:21:33.213Z,2.17
2023-08-17T17:24:00.413Z,2.70
2023-08-17T17:26:29.121Z,1.97
2023-08-17T17:28:57.366Z,1.77
2023-08-17T17:31:25.130Z,1.80
2023-08-17T17:33:53.347Z,2.23
2023-08-17T17:36:20.295Z,2.33
2023-08-17T17:38:49.081Z,2.53
2023-08-17T17:41:18.877Z,2.00
2023-08-17T17:43:48.534Z,2.20
2023-08-17T17:46:21.427Z,1.90
2023-08-17T17:51:34.837Z,2.57
2023-08-17T17:56:47.477Z,2.30
2023-08-17T17:59:15.287Z,2.17
2023-08-17T18:01:42.349Z,2.07
2023-08-17T18:04:10.976Z,2.30
2023-08-17T18:09:31.554Z,2.20
2023-08-17T18:11:59.704Z,2.63
2023-08-17T18:14:27.407Z,2.43
2023-08-17T18:16:56.825Z,2.70
2023-08-17T18:19:24.848Z,2.53
2023-08-17T18:21:52.426Z,2.80
2023-08-17T18:24:20.418Z,2.60
2023-08-17T18:26:51.236Z,2.23
2023-08-17T18:29:18.411Z,4.47
2023-08-17T18:31:46.131Z,2.80
2023-08-17T18:36:59.244Z,2.67
2023-08-17T18:39:27.846Z,2.70
2023-08-17T18:41:54.983Z,2.90
2023-08-17T18:44:25.092Z,4.00
2023-08-17T18:46:52.170Z,3.70
2023-08-17T18:49:20.477Z,3.03
2023-08-17T18:51:48.319Z,3.20
2023-08-17T18:54:15.802Z,3.00
2023-08-17T18:56:43.303Z,4.10
2023-08-17T18:59:10.789Z,3.53
2023-08-17T19:01:41.231Z,3.63
2023-08-17T19:09:50.650Z,3.37
2023-08-17T19:12:20.870Z,3.27
2023-08-17T19:14:52.058Z,3.23
2023-08-17T19:20:10.665Z,3.23
2023-08-17T19:22:41.386Z,3.30
2023-08-17T19:25:08.833Z,3.20
2023-08-17T19:27:38.866Z,8.13
2023-08-17T19:30:14.782Z,11.03
2023-08-17T19:32:46.966Z,9.33
2023-08-17T19:37:59.876Z,8.10
2023-08-17T19:40:27.128Z,4.43
2023-08-17T19:42:55.285Z,4.70
2023-08-17T19:45:23.040Z,4.50
2023-08-17T19:47:49.977Z,3.93
2023-08-17T19:50:17.856Z,2.97
2023-08-17T19:52:47.464Z,3.17
2023-08-17T19:55:16.133Z,3.30
2023-08-17T19:57:45.194Z,3.13
2023-08-17T20:00:12.989Z,3.53
2023-08-17T20:02:40.405Z,3.10
2023-08-17T20:05:07.976Z,3.27
2023-08-17T20:07:35.395Z,3.40
2023-08-17T20:10:05.476Z,3.10
2023-08-17T20:12:32.608Z,3.43
2023-08-17T20:14:59.417Z,3.77
2023-08-17T20:17:27.433Z,4.20
2023-08-17T20:19:55.465Z,3.70
2023-08-17T20:22:31.386Z,4.13
2023-08-17T20:25:05.415Z,3.67
2023-08-17T20:27:32.721Z,3.50
2023-08-17T20:30:00.590Z,3.63
2023-08-17T20:32:28.601Z,3.57
2023-08-17T20:34:58.689Z,3.67
2023-08-17T20:37:27.260Z,3.60
2023-08-17T20:39:56.091Z,3.83
2023-08-17T20:42:24.485Z,3.80
2023-08-17T20:44:51.563Z,3.80
2023-08-17T20:47:18.753Z,3.57
2023-08-17T20:49:48.209Z,3.93
2023-08-17T20:52:16.059Z,3.70
2023-08-17T20:54:46.308Z,3.80
2023-08-17T20:57:15.149Z,4.00
2023-08-17T20:59:42.791Z,3.73
2023-08-17T21:02:09.814Z,3.40
2023-08-17T21:04:38.188Z,3.73
2023-08-17T21:07:05.223Z,3.23
2023-08-17T21:12:17.284Z,3.23
2023-08-17T21:14:48.245Z,3.90
2023-08-17T21:17:15.114Z,3.60
2023-08-17T21:19:42.423Z,3.40
2023-08-17T21:24:54.427Z,3.00
2023-08-17T21:27:21.319Z,3.83
2023-08-17T21:29:48.215Z,3.57
2023-08-17T21:32:14.973Z,3.40
2023-08-17T21:34:42.618Z,3.63
2023-08-17T21:37:10.846Z,3.20
2023-08-17T21:39:40.040Z,3.70
2023-08-17T21:42:07.251Z,3.67
2023-08-17T21:44:34.779Z,3.50
2023-08-17T21:47:01.480Z,3.40
2023-08-17T21:52:12.360Z,3.03
2023-08-17T21:54:39.216Z,3.07
2023-08-17T21:57:06.127Z,3.57
2023-08-17T21:59:32.898Z,3.10
2023-08-17T22:02:00.283Z,3.13
2023-08-17T22:04:27.661Z,2.97
2023-08-17T22:06:56.965Z,3.47
2023-08-17T22:09:24.296Z,3.07
2023-08-17T22:11:51.119Z,3.00
2023-08-17T22:14:17.849Z,3.00
2023-08-17T22:16:44.772Z,2.80
2023-08-17T22:19:11.682Z,3.37
2023-08-17T22:21:38.484Z,3.07
2023-08-17T22:26:49.977Z,3.33
2023-08-17T22:29:16.740Z,3.27
2023-08-17T22:31:44.421Z,3.33
2023-08-17T22:34:14.113Z,3.10
2023-08-17T22:36:41.939Z,3.20
2023-08-17T22:39:09.561Z,2.90
2023-08-17T22:41:37.034Z,3.40
2023-08-17T22:44:03.918Z,3.33
2023-08-17T22:46:30.865Z,3.27
2023-08-17T22:48:57.653Z,3.17
2023-08-17T22:54:10.194Z,3.20
2023-08-17T22:59:23.148Z,3.03
2023-08-17T23:04:35.204Z,2.87
2023-08-17T23:07:01.972Z,2.90
2023-08-17T23:09:28.750Z,2.90
2023-08-17T23:11:55.901Z,2.80
2023-08-17T23:14:22.777Z,3.17
2023-08-17T23:16:50.045Z,3.17
2023-08-17T23:19:16.737Z,3.37
2023-08-17T23:21:43.912Z,3.27
2023-08-17T23:24:12.217Z,3.27
2023-08-17T23:26:40.413Z,2.60
2023-08-17T23:31:53.819Z,3.37
2023-08-17T23:37:05.701Z,3.30
2023-08-17T23:42:17.114Z,3.00
2023-08-17T23:47:30.290Z,3.17
2023-08-17T23:52:42.183Z,3.00
2023-08-17T23:57:54.585Z,3.23
